Time;durP1;ratioP1;P1;durP2;ratioP2;P2;SDS_P1;SDS_P2;PMS_P1;PMS_P2;Temp;Humidity;BMP_temperature;BMP_pressure;BME280_temperature;BME280_humidity;BME280_pressure;Samples;Min_cycle;Max_cycle;Signal;HPM_P1;HPM_P2
2022/05/17 00:00:27;;;;;;;24.52;9.98;;;15.00;99.90;;;;;;5077068;28;20044;-52
2022/05/17 00:02:52;;;;;;;23.30;9.55;;;14.90;99.90;;;;;;5081947;28;20050;-48
2022/05/17 00:05:18;;;;;;;20.83;9.93;;;14.90;99.90;;;;;;5080512;28;20566;-52
2022/05/17 00:07:44;;;;;;;24.10;9.70;;;14.80;99.90;;;;;;5078975;28;20616;-46
2022/05/17 00:10:11;;;;;;;23.35;10.05;;;14.80;99.90;;;;;;5075627;28;20055;-51
2022/05/17 00:12:37;;;;;;;23.52;10.10;;;14.80;99.90;;;;;;5081092;28;20051;-55
2022/05/17 00:15:06;;;;;;;24.27;10.68;;;14.80;99.90;;;;;;5079771;28;20052;-57
2022/05/17 00:17:32;;;;;;;22.08;10.40;;;14.70;99.90;;;;;;5081525;28;20060;-54
2022/05/17 00:19:58;;;;;;;25.70;9.63;;;14.70;99.90;;;;;;5081076;28;20048;-51
2022/05/17 00:22:24;;;;;;;19.77;9.68;;;14.70;99.90;;;;;;5079861;28;20054;-54
2022/05/17 00:24:50;;;;;;;21.23;9.93;;;14.70;99.90;;;;;;5078612;28;20513;-54
2022/05/17 00:27:16;;;;;;;19.55;10.65;;;14.60;99.90;;;;;;5077015;28;20052;-56
2022/05/17 00:29:41;;;;;;;23.90;10.25;;;14.60;99.90;;;;;;5079734;28;20396;-53
2022/05/17 00:32:07;;;;;;;20.48;10.70;;;14.60;99.90;;;;;;5081527;28;20133;-56
2022/05/17 00:34:34;;;;;;;23.15;10.05;;;14.50;99.90;;;;;;5090326;28;20479;-55
2022/05/17 00:37:00;;;;;;;25.67;10.70;;;14.50;99.90;;;;;;5101953;28;20054;-54
2022/05/17 00:39:26;;;;;;;19.77;9.23;;;14.50;99.90;;;;;;5105014;28;20126;-47
2022/05/17 00:41:52;;;;;;;22.90;11.35;;;14.40;99.90;;;;;;5066642;28;20036;-58
2022/05/17 00:47:02;;;;;;;22.33;9.25;;;14.40;99.90;;;;;;5101948;28;20086;-57
2022/05/17 00:49:46;;;;;;;19.88;10.25;;;14.30;99.90;;;;;;5101424;28;20096;-53
2022/05/17 00:52:23;;;;;;;20.98;10.95;;;14.30;99.90;;;;;;5082613;28;20089;-52
2022/05/17 00:54:51;;;;;;;22.17;9.82;;;14.30;99.90;;;;;;5075166;28;20458;-55
2022/05/17 00:57:33;;;;;;;20.00;9.80;;;14.30;99.90;;;;;;5090430;28;20480;-55
2022/05/17 01:00:04;;;;;;;22.85;10.85;;;14.30;99.90;;;;;;5085743;28;20084;-53
2022/05/17 01:02:31;;;;;;;25.77;10.50;;;14.30;99.90;;;;;;5098834;28;20082;-54
2022/05/17 01:04:58;;;;;;;19.67;9.93;;;14.20;99.90;;;;;;5100274;28;20058;-52
2022/05/17 01:07:28;;;;;;;18.15;9.00;;;14.20;99.90;;;;;;5101559;28;20060;-49
2022/05/17 01:09:54;;;;;;;24.90;10.25;;;14.10;99.90;;;;;;5101429;28;20035;-53
2022/05/17 01:12:20;;;;;;;26.80;10.27;;;14.10;99.90;;;;;;5082448;28;20458;-54
2022/05/17 01:14:57;;;;;;;21.95;9.82;;;14.10;99.90;;;;;;5082344;28;20091;-54
2022/05/17 01:17:32;;;;;;;21.15;9.63;;;14.10;99.90;;;;;;5082683;28;20051;-55
2022/05/17 01:19:59;;;;;;;23.05;11.02;;;14.10;99.90;;;;;;5082564;28;20058;-53
2022/05/17 01:22:25;;;;;;;20.92;10.35;;;14.10;99.90;;;;;;5082733;28;20493;-54
2022/05/17 01:24:51;;;;;;;24.25;10.63;;;14.10;99.90;;;;;;5101363;28;20537;-54
2022/05/17 01:27:40;;;;;;;25.13;11.02;;;14.10;99.90;;;;;;5083650;28;20059;-55
2022/05/17 01:30:07;;;;;;;23.02;10.13;;;14.00;99.90;;;;;;5084397;28;20086;-47
2022/05/17 01:32:34;;;;;;;25.50;10.52;;;14.00;99.90;;;;;;5098369;28;20051;-52
2022/05/17 01:35:00;;;;;;;22.08;10.25;;;14.00;99.90;;;;;;5099622;28;20067;-51
2022/05/17 01:37:25;;;;;;;28.00;10.93;;;13.90;99.90;;;;;;5101515;28;20569;-57
2022/05/17 01:39:51;;;;;;;19.05;10.07;;;13.90;99.90;;;;;;5101671;28;20055;-52
2022/05/17 01:42:17;;;;;;;22.30;10.65;;;13.80;99.90;;;;;;5101059;28;20086;-55
2022/05/17 01:44:44;;;;;;;22.08;9.48;;;13.80;99.90;;;;;;5100731;28;20096;-52
2022/05/17 01:47:11;;;;;;;23.33;11.27;;;13.80;99.90;;;;;;5101364;28;20417;-56
2022/05/17 01:49:37;;;;;;;22.55;10.32;;;13.80;99.90;;;;;;5101248;28;20836;-46
2022/05/17 01:52:03;;;;;;;19.20;9.68;;;13.80;99.90;;;;;;5084742;28;20051;-51
2022/05/17 01:54:32;;;;;;;22.45;10.15;;;13.80;99.90;;;;;;5102476;28;20577;-54
2022/05/17 01:57:01;;;;;;;19.45;10.07;;;13.70;99.90;;;;;;5082277;28;20051;-58
2022/05/17 01:59:27;;;;;;;23.63;10.70;;;13.70;99.90;;;;;;5101887;28;20057;-49
2022/05/17 02:01:53;;;;;;;29.05;12.82;;;13.70;99.90;;;;;;5101116;28;20047;-53
2022/05/17 02:04:19;;;;;;;18.73;9.93;;;13.60;99.90;;;;;;5100442;28;20534;-52
2022/05/17 02:06:45;;;;;;;20.30;10.23;;;13.60;99.90;;;;;;5100603;28;20058;-53
2022/05/17 02:09:11;;;;;;;19.38;9.93;;;13.50;99.90;;;;;;5082592;28;20056;-52
2022/05/17 02:11:37;;;;;;;22.15;9.43;;;13.50;99.90;;;;;;5101151;28;20147;-53
2022/05/17 02:14:04;;;;;;;22.63;10.18;;;13.50;99.90;;;;;;5100764;28;20054;-57
2022/05/17 02:16:29;;;;;;;18.83;10.52;;;13.40;99.90;;;;;;5101404;28;20044;-54
2022/05/17 02:18:55;;;;;;;15.23;9.88;;;13.30;99.90;;;;;;5083681;28;20087;-56
2022/05/17 02:21:21;;;;;;;21.92;11.57;;;13.20;99.90;;;;;;5104876;28;20044;-55
2022/05/17 02:23:46;;;;;;;23.95;11.57;;;13.20;99.90;;;;;;5103804;28;20047;-52
2022/05/17 02:26:12;;;;;;;23.50;13.02;;;13.10;99.90;;;;;;5103751;28;20047;-56
2022/05/17 02:28:38;;;;;;;25.17;12.48;;;13.00;99.90;;;;;;5102614;28;20050;-49
2022/05/17 02:31:04;;;;;;;19.25;11.45;;;13.00;99.90;;;;;;5094004;28;20047;-52
2022/05/17 02:33:30;;;;;;;22.20;11.90;;;13.00;99.90;;;;;;5085148;28;20062;-56
2022/05/17 02:35:59;;;;;;;22.60;12.18;;;12.90;99.90;;;;;;5100758;28;20051;-55
2022/05/17 02:38:26;;;;;;;25.13;11.00;;;12.90;99.90;;;;;;5077684;28;20544;-53
2022/05/17 02:40:52;;;;;;;21.27;11.68;;;12.90;99.90;;;;;;5099618;28;20063;-55
2022/05/17 02:43:17;;;;;;;21.38;11.02;;;12.80;99.90;;;;;;5102894;28;20039;-55
2022/05/17 02:45:43;;;;;;;25.95;11.77;;;12.90;99.90;;;;;;5084840;28;20633;-55
2022/05/17 02:48:09;;;;;;;21.30;10.77;;;12.80;99.90;;;;;;5094355;28;20055;-52
2022/05/17 02:50:35;;;;;;;21.08;10.85;;;12.90;99.90;;;;;;5104465;28;20048;-55
2022/05/17 02:53:00;;;;;;;21.60;10.38;;;12.90;99.90;;;;;;5085202;28;20052;-51
2022/05/17 02:55:26;;;;;;;21.27;10.93;;;12.90;99.90;;;;;;5085305;28;20043;-53
2022/05/17 02:57:53;;;;;;;18.50;10.50;;;12.90;99.90;;;;;;5085942;28;20490;-53
2022/05/17 03:00:19;;;;;;;16.33;10.45;;;12.90;99.90;;;;;;5103446;28;20051;-54
2022/05/17 03:02:45;;;;;;;14.98;10.57;;;12.80;99.90;;;;;;5104298;28;20506;-53
2022/05/17 03:05:12;;;;;;;22.65;11.25;;;12.80;99.90;;;;;;5086762;28;20059;-57
2022/05/17 03:07:38;;;;;;;18.77;11.30;;;12.80;99.90;;;;;;5087479;28;20063;-55
2022/05/17 03:10:05;;;;;;;18.02;10.35;;;12.80;99.90;;;;;;5087651;28;20083;-55
2022/05/17 03:12:30;;;;;;;20.08;11.27;;;12.70;99.90;;;;;;5082356;28;20126;-56
2022/05/17 03:14:56;;;;;;;21.73;10.85;;;12.70;99.90;;;;;;5080985;28;20546;-54
2022/05/17 03:17:22;;;;;;;24.02;11.55;;;12.60;99.90;;;;;;5102968;28;20050;-55
2022/05/17 03:19:49;;;;;;;25.25;11.98;;;12.60;99.90;;;;;;5103287;28;20490;-54
2022/05/17 03:22:14;;;;;;;20.38;11.55;;;12.60;99.90;;;;;;5085737;28;20100;-54
2022/05/17 03:24:40;;;;;;;18.35;11.73;;;12.60;99.90;;;;;;5102339;28;20055;-51
2022/05/17 03:27:06;;;;;;;16.83;11.20;;;12.60;99.90;;;;;;5084896;28;20050;-49
2022/05/17 03:29:32;;;;;;;17.85;11.43;;;12.60;99.90;;;;;;5102190;28;20112;-52
2022/05/17 03:32:00;;;;;;;17.48;11.63;;;12.50;99.90;;;;;;5092820;28;20335;-54
2022/05/17 03:34:26;;;;;;;23.25;12.82;;;12.50;99.90;;;;;;5100691;28;20052;-55
2022/05/17 03:36:52;;;;;;;20.45;12.30;;;12.50;99.90;;;;;;5103068;28;20606;-56
2022/05/17 03:39:18;;;;;;;17.48;12.23;;;12.40;99.90;;;;;;5101671;28;20075;-56
2022/05/17 03:41:44;;;;;;;17.63;12.23;;;12.40;99.90;;;;;;5103256;28;20055;-54
2022/05/17 03:44:10;;;;;;;20.27;12.43;;;12.50;99.90;;;;;;5102697;28;20054;-54
2022/05/17 03:46:37;;;;;;;20.27;11.75;;;12.50;99.90;;;;;;5102177;28;20480;-51
2022/05/17 03:49:03;;;;;;;25.75;12.90;;;12.50;99.90;;;;;;5085304;28;20052;-56
2022/05/17 03:51:28;;;;;;;20.70;11.80;;;12.60;99.90;;;;;;5102162;28;20479;-56
2022/05/17 03:53:54;;;;;;;23.02;12.38;;;12.60;99.90;;;;;;5103189;28;20043;-54
2022/05/17 03:56:20;;;;;;;21.23;12.25;;;12.70;99.90;;;;;;5084484;28;20196;-55
2022/05/17 03:58:46;;;;;;;23.20;12.77;;;12.70;99.90;;;;;;5102491;28;20460;-51
2022/05/17 04:01:12;;;;;;;22.70;11.38;;;12.80;99.90;;;;;;5102882;28;20535;-54
2022/05/17 04:03:39;;;;;;;19.65;11.20;;;12.90;99.90;;;;;;5102995;28;20051;-54
2022/05/17 04:06:05;;;;;;;19.05;10.55;;;13.00;99.90;;;;;;5103310;28;20048;-51
2022/05/17 04:08:32;;;;;;;20.10;11.68;;;13.10;99.90;;;;;;5101101;28;20066;-54
2022/05/17 04:10:57;;;;;;;23.05;11.30;;;13.30;99.90;;;;;;5102761;28;20379;-51
2022/05/17 04:13:26;;;;;;;20.33;9.93;;;13.30;99.90;;;;;;5103118;28;20479;-55
2022/05/17 04:15:52;;;;;;;23.98;10.60;;;13.50;99.90;;;;;;5103759;28;20062;-56
2022/05/17 04:18:18;;;;;;;18.50;11.10;;;13.60;99.90;;;;;;5104614;28;20047;-56
2022/05/17 04:20:44;;;;;;;18.27;10.02;;;13.70;99.90;;;;;;5105406;28;20144;-54
2022/05/17 04:23:09;;;;;;;22.35;10.65;;;13.80;99.90;;;;;;5102005;28;20146;-44
2022/05/17 04:25:35;;;;;;;26.27;9.45;;;14.00;99.90;;;;;;5102003;28;20043;-52
2022/05/17 04:28:01;;;;;;;20.20;8.73;;;14.50;99.90;;;;;;5101503;28;20394;-55
2022/05/17 04:30:28;;;;;;;19.77;9.73;;;15.20;99.90;;;;;;5070352;28;20126;-51
2022/05/17 04:32:54;;;;;;;20.25;8.95;;;15.50;99.90;;;;;;5083184;28;20074;-55
2022/05/17 04:35:20;;;;;;;16.23;8.45;;;15.50;99.90;;;;;;5102002;28;20450;-53
2022/05/17 04:37:46;;;;;;;16.10;10.07;;;15.50;99.90;;;;;;5101439;28;20428;-54
2022/05/17 04:40:13;;;;;;;18.00;9.32;;;15.40;99.90;;;;;;5101457;28;20497;-52
2022/05/17 04:42:41;;;;;;;13.85;8.27;;;15.30;99.90;;;;;;5099094;28;20047;-49
2022/05/17 04:45:11;;;;;;;14.85;9.18;;;15.30;99.90;;;;;;5101302;28;20126;-54
2022/05/17 04:47:41;;;;;;;17.52;8.55;;;15.40;99.90;;;;;;5102313;28;20461;-56
2022/05/17 04:50:08;;;;;;;21.40;8.57;;;15.90;99.90;;;;;;5101678;28;20389;-54
2022/05/17 04:52:34;;;;;;;18.70;7.70;;;16.90;99.90;;;;;;5101048;28;20561;-52
2022/05/17 04:55:00;;;;;;;13.82;7.18;;;17.90;99.90;;;;;;5083649;28;20343;-54
2022/05/17 04:57:28;;;;;;;12.93;6.85;;;18.70;99.90;;;;;;5101867;28;20059;-54
2022/05/17 04:59:54;;;;;;;18.17;7.65;;;19.20;99.90;;;;;;5065549;28;20124;-55
2022/05/17 05:02:20;;;;;;;15.48;7.03;;;19.80;99.90;;;;;;5099142;28;20192;-57
2022/05/17 05:04:45;;;;;;;15.10;6.30;;;20.20;99.90;;;;;;5094869;28;20421;-53
2022/05/17 05:07:11;;;;;;;12.80;6.25;;;20.60;99.90;;;;;;5099503;28;20404;-54
2022/05/17 05:09:37;;;;;;;18.65;7.10;;;21.00;99.90;;;;;;5082765;28;20567;-55
2022/05/17 05:12:03;;;;;;;13.00;5.43;;;21.10;99.90;;;;;;5101506;28;20127;-54
2022/05/17 05:14:29;;;;;;;13.65;5.63;;;21.50;99.90;;;;;;5082766;28;20500;-56
2022/05/17 05:16:56;;;;;;;18.00;6.18;;;21.80;99.90;;;;;;5101745;28;20465;-55
2022/05/17 05:19:22;;;;;;;15.77;5.68;;;22.30;99.90;;;;;;5102171;28;20043;-55
2022/05/17 05:21:48;;;;;;;13.82;5.40;;;22.10;99.90;;;;;;5083962;28;20402;-55
2022/05/17 05:24:13;;;;;;;12.25;5.05;;;21.80;99.90;;;;;;5101788;28;20498;-57
2022/05/17 05:26:39;;;;;;;16.48;6.38;;;21.40;99.90;;;;;;5102673;28;20490;-53
2022/05/17 05:29:06;;;;;;;18.33;5.78;;;21.10;99.90;;;;;;5102178;28;20058;-53
2022/05/17 05:31:32;;;;;;;14.98;5.32;;;20.70;99.90;;;;;;5093739;28;20109;-54
2022/05/17 05:34:01;;;;;;;12.60;5.15;;;20.40;99.90;;;;;;5103688;28;20188;-53
2022/05/17 05:36:31;;;;;;;15.18;5.32;;;20.20;99.90;;;;;;5101531;28;20139;-58
2022/05/17 05:38:57;;;;;;;15.40;6.03;;;20.10;99.90;;;;;;5101815;28;20189;-52
2022/05/17 05:41:23;;;;;;;15.90;4.93;;;20.20;99.90;;;;;;5101504;28;20134;-51
2022/05/17 05:43:49;;;;;;;13.80;4.97;;;20.50;99.90;;;;;;5100332;28;20520;-57
2022/05/17 05:46:15;;;;;;;14.90;5.38;;;20.70;99.90;;;;;;5101040;28;20075;-52
2022/05/17 05:48:40;;;;;;;10.93;5.28;;;20.90;99.90;;;;;;5083212;28;20150;-56
2022/05/17 05:51:07;;;;;;;13.90;5.15;;;21.30;99.90;;;;;;5100511;28;20096;-52
2022/05/17 05:53:33;;;;;;;15.98;5.15;;;21.80;99.90;;;;;;5099639;28;20544;-55
2022/05/17 05:56:02;;;;;;;15.90;5.63;;;21.80;99.90;;;;;;5103906;28;20161;-57
2022/05/17 05:58:29;;;;;;;10.23;4.28;;;21.50;99.90;;;;;;5105262;28;20046;-52
2022/05/17 06:00:55;;;;;;;16.13;5.20;;;21.50;99.90;;;;;;5105480;28;20144;-54
2022/05/17 06:03:21;;;;;;;14.30;5.18;;;21.70;99.90;;;;;;5086371;28;20122;-55
2022/05/17 06:05:47;;;;;;;15.18;5.35;;;22.10;99.90;;;;;;5105174;28;20047;-47
2022/05/17 06:08:14;;;;;;;16.45;5.60;;;22.30;99.90;;;;;;5104755;28;20089;-56
2022/05/17 06:10:41;;;;;;;15.80;5.45;;;22.70;99.90;;;;;;5103958;28;20058;-56
2022/05/17 06:13:08;;;;;;;15.02;5.97;;;22.60;99.90;;;;;;5105770;28;20086;-55
2022/05/17 06:15:34;;;;;;;15.65;5.85;;;22.50;99.90;;;;;;5088210;28;20043;-56
2022/05/17 06:18:06;;;;;;;14.25;5.38;;;22.80;99.90;;;;;;5106409;28;20554;-56
2022/05/17 06:20:33;;;;;;;16.17;6.00;;;23.60;99.90;;;;;;5098270;28;20051;-55
2022/05/17 06:22:59;;;;;;;19.10;6.30;;;24.70;99.90;;;;;;5103898;28;20066;-56
2022/05/17 06:25:25;;;;;;;13.93;5.85;;;25.70;99.90;;;;;;5104110;28;20482;-54
2022/05/17 06:27:51;;;;;;;16.60;6.95;;;26.90;99.90;;;;;;5104269;28;20047;-55
2022/05/17 06:30:17;;;;;;;19.35;6.57;;;27.60;99.90;;;;;;5105289;28;20585;-55
2022/05/17 06:32:49;;;;;;;13.75;5.85;;;28.00;98.80;;;;;;5107053;28;20087;-55
2022/05/17 06:35:20;;;;;;;16.75;5.97;;;28.00;97.70;;;;;;5103969;28;20087;-55
2022/05/17 06:37:46;;;;;;;12.02;5.63;;;28.10;96.80;;;;;;5109296;28;20055;-54
2022/05/17 06:40:12;;;;;;;14.15;5.75;;;27.60;97.50;;;;;;5108430;28;20058;-52
2022/05/17 06:42:38;;;;;;;14.35;6.50;;;27.50;97.20;;;;;;5107595;28;20043;-56
2022/05/17 06:45:04;;;;;;;13.63;5.53;;;27.70;97.00;;;;;;5090307;28;20446;-56
2022/05/17 06:47:30;;;;;;;12.50;5.93;;;27.60;96.70;;;;;;5103690;28;20553;-52
2022/05/17 06:49:56;;;;;;;13.02;6.63;;;28.00;95.80;;;;;;5110942;28;20055;-55
2022/05/17 06:52:27;;;;;;;18.60;6.22;;;28.70;96.00;;;;;;5107650;28;20070;-55
2022/05/17 06:55:00;;;;;;;14.32;6.05;;;28.70;95.20;;;;;;5103126;28;20754;-55
2022/05/17 06:57:25;;;;;;;;;;;28.90;94.30;;;;;;5089575;28;20047;-56
2022/05/17 06:59:51;;;;;;;15.07;5.75;;;29.30;94.00;;;;;;5104191;28;19976;-54
2022/05/17 07:02:17;;;;;;;16.02;6.07;;;29.40;94.00;;;;;;5101772;28;20082;-55
2022/05/17 07:04:43;;;;;;;13.32;5.68;;;29.50;93.50;;;;;;5077105;28;20047;-54
2022/05/17 07:07:09;;;;;;;13.40;6.05;;;29.50;93.10;;;;;;5106023;28;20413;-55
2022/05/17 07:09:36;;;;;;;15.10;5.43;;;29.40;93.30;;;;;;5106151;28;20065;-55
2022/05/17 07:14:46;;;;;;;13.85;5.07;;;28.50;93.00;;;;;;5104013;28;20152;-54
2022/05/17 07:17:20;;;;;;;17.35;6.18;;;27.70;94.00;;;;;;5103378;28;20710;-52
2022/05/17 07:19:47;;;;;;;12.48;5.25;;;27.50;94.50;;;;;;5084724;28;20054;-56
2022/05/17 07:22:14;;;;;;;15.30;5.55;;;27.10;94.60;;;;;;5103284;28;20391;-55
2022/05/17 07:24:41;;;;;;;14.10;6.32;;;26.90;94.70;;;;;;5103342;28;20467;-56
2022/05/17 07:27:09;;;;;;;9.02;5.07;;;26.60;95.10;;;;;;5103573;28;20497;-54
2022/05/17 07:29:35;;;;;;;14.52;5.70;;;26.40;94.70;;;;;;5103482;28;20112;-54
2022/05/17 07:32:01;;;;;;;13.13;5.18;;;26.30;95.30;;;;;;5104300;28;20363;-56
2022/05/17 07:34:27;;;;;;;16.13;5.63;;;26.00;95.70;;;;;;5102576;28;20089;-54
2022/05/17 07:36:54;;;;;;;14.63;5.68;;;25.90;95.90;;;;;;5103973;28;20100;-53
2022/05/17 07:39:19;;;;;;;13.15;5.38;;;25.60;95.90;;;;;;5104618;28;20069;-54
2022/05/17 07:41:45;;;;;;;11.13;4.65;;;25.50;96.10;;;;;;5104650;28;20557;-55
2022/05/17 07:44:11;;;;;;;11.38;5.68;;;25.60;96.60;;;;;;5103494;28;20619;-54
2022/05/17 07:46:38;;;;;;;13.05;5.22;;;25.40;96.40;;;;;;5100669;28;20051;-52
2022/05/17 07:49:04;;;;;;;16.55;5.90;;;25.30;96.80;;;;;;5084113;28;20122;-49
2022/05/17 07:51:35;;;;;;;12.27;5.45;;;25.20;96.50;;;;;;5083695;28;20536;-56
2022/05/17 07:54:01;;;;;;;16.15;6.22;;;25.20;96.50;;;;;;5079758;28;20044;-54
2022/05/17 07:56:27;;;;;;;72.22;9.38;;;25.30;96.60;;;;;;5067351;28;20506;-55
2022/05/17 07:58:53;;;;;;;17.48;6.25;;;25.40;97.20;;;;;;5079587;28;20093;-54
2022/05/17 08:01:19;;;;;;;13.35;5.65;;;25.00;96.40;;;;;;5093038;28;20047;-57
2022/05/17 08:03:44;;;;;;;12.88;4.38;;;25.00;96.70;;;;;;5066869;28;20071;-55
2022/05/17 08:06:10;;;;;;;10.48;5.07;;;24.90;96.90;;;;;;5103146;28;20048;-55
2022/05/17 08:08:36;;;;;;;14.52;5.07;;;24.80;96.90;;;;;;5083465;28;20914;-49
2022/05/17 08:11:03;;;;;;;12.27;5.18;;;24.80;97.50;;;;;;5103168;28;20426;-54
2022/05/17 08:13:28;;;;;;;15.23;6.10;;;24.90;97.10;;;;;;5103940;28;20144;-57
2022/05/17 08:15:54;;;;;;;14.00;5.30;;;24.60;97.20;;;;;;5103362;28;20091;-54
2022/05/17 08:18:20;;;;;;;14.63;5.75;;;24.50;97.40;;;;;;5101917;28;20048;-56
2022/05/17 08:20:47;;;;;;;16.30;5.65;;;24.50;97.80;;;;;;5102549;28;20055;-57
2022/05/17 08:23:13;;;;;;;11.10;5.50;;;24.40;97.90;;;;;;5099743;28;20625;-56
2022/05/17 08:28:23;;;;;;;13.02;5.75;;;24.60;97.80;;;;;;5096693;28;20556;-55
2022/05/17 08:30:50;;;;;;;13.02;5.65;;;24.80;97.90;;;;;;5101089;28;20047;-56
2022/05/17 08:33:17;;;;;;;11.23;5.45;;;24.80;97.70;;;;;;5097955;28;20086;-55
2022/05/17 08:35:49;;;;;;;18.33;5.22;;;24.90;97.70;;;;;;5095289;28;20120;-56
2022/05/17 08:38:28;;;;;;;12.13;5.20;;;24.80;97.30;;;;;;5086233;28;20055;-57
2022/05/17 08:41:24;;;;;;;13.32;5.70;;;24.90;97.60;;;;;;5099274;28;20494;-55
2022/05/17 08:43:56;;;;;;;10.50;4.60;;;24.80;97.80;;;;;;5095946;28;20042;-57
2022/05/17 08:47:01;;;;;;;11.52;4.28;;;24.80;97.90;;;;;;5102808;28;20502;-56
2022/05/17 08:49:41;;;;;;;17.77;5.38;;;25.10;97.40;;;;;;5091124;28;20044;-51
2022/05/17 08:52:14;;;;;;;13.57;5.32;;;25.20;96.80;;;;;;5097201;28;20474;-56
2022/05/17 08:54:41;;;;;;;10.77;4.65;;;25.20;96.60;;;;;;5094790;28;20039;-56
2022/05/17 08:57:20;;;;;;;13.63;4.63;;;25.20;96.70;;;;;;5096807;28;20116;-57
2022/05/17 08:59:47;;;;;;;14.02;4.53;;;25.30;96.70;;;;;;5100972;28;20079;-56
2022/05/17 09:02:43;;;;;;;9.88;3.90;;;25.40;96.60;;;;;;5079853;28;20063;-57
2022/05/17 09:05:24;;;;;;;12.63;3.88;;;25.30;96.10;;;;;;5092497;28;20043;-51
2022/05/17 09:08:04;;;;;;;12.85;4.38;;;25.50;96.70;;;;;;5090251;28;20047;-57
2022/05/17 09:10:37;;;;;;;13.48;3.75;;;25.60;95.60;;;;;;5098821;28;20047;-55
2022/05/17 09:13:24;;;;;;;10.18;4.00;;;25.70;96.30;;;;;;5100947;28;20401;-57
2022/05/17 09:15:52;;;;;;;9.98;3.30;;;25.60;94.50;;;;;;5095178;28;20139;-57
2022/05/17 09:18:25;;;;;;;12.02;3.55;;;25.60;95.80;;;;;;5101072;28;20428;-56
2022/05/17 09:20:50;;;;;;;9.98;3.22;;;25.60;95.40;;;;;;5100740;28;20051;-56
2022/05/17 09:23:16;;;;;;;11.07;3.08;;;25.60;95.70;;;;;;5076372;28;20571;-57
2022/05/17 09:25:56;;;;;;;11.18;4.22;;;25.70;95.40;;;;;;5102621;28;20051;-59
2022/05/17 09:28:28;;;;;;;10.13;3.53;;;25.60;95.00;;;;;;5082727;28;20077;-56
2022/05/17 09:31:24;;;;;;;13.07;3.10;;;25.40;94.60;;;;;;5105418;28;20055;-56
2022/05/17 09:33:51;;;;;;;9.13;3.00;;;25.20;94.80;;;;;;5081202;28;20444;-57
2022/05/17 09:36:20;;;;;;;8.23;3.05;;;25.10;95.30;;;;;;5084447;28;20079;-56
2022/05/17 09:38:48;;;;;;;13.50;3.42;;;25.10;94.60;;;;;;5087504;28;20056;-53
2022/05/17 09:41:19;;;;;;;9.85;2.97;;;25.10;94.80;;;;;;5088032;28;20056;-56
2022/05/17 09:43:52;;;;;;;8.75;2.80;;;25.00;94.30;;;;;;5084063;28;20048;-56
2022/05/17 09:46:33;;;;;;;11.25;2.35;;;25.00;94.40;;;;;;5080704;28;20033;-58
2022/05/17 09:52:32;;;;;;;11.00;3.40;;;24.90;94.40;;;;;;5081398;28;20113;-57
2022/05/17 09:55:11;;;;;;;9.02;3.35;;;24.80;95.00;;;;;;5078981;28;20048;-53
2022/05/17 09:57:37;;;;;;;8.95;3.42;;;24.70;94.90;;;;;;5086699;28;20050;-55
2022/05/17 10:00:12;;;;;;;11.65;3.97;;;24.60;94.70;;;;;;5083465;28;20040;-56
2022/05/17 10:03:05;;;;;;;9.15;3.00;;;24.50;94.80;;;;;;5082219;28;20047;-58
2022/05/17 10:05:37;;;;;;;9.52;3.63;;;24.50;95.20;;;;;;5060837;28;20048;-57
2022/05/17 10:08:35;;;;;;;11.70;3.03;;;24.60;94.50;;;;;;5045847;28;20339;-55
2022/05/17 10:11:23;;;;;;;7.82;3.15;;;24.90;95.10;;;;;;4998758;28;20406;-57
2022/05/17 10:13:59;;;;;;;10.05;3.40;;;25.10;93.40;;;;;;5000869;28;20621;-55
2022/05/17 10:16:37;;;;;;;10.02;2.80;;;25.00;94.50;;;;;;4996825;28;20062;-56
2022/05/17 10:19:26;;;;;;;9.60;2.70;;;25.20;93.80;;;;;;5001002;28;20103;-56
2022/05/17 10:22:01;;;;;;;10.68;3.15;;;25.00;93.50;;;;;;4921343;29;20059;-49
2022/05/17 10:24:44;;;;;;;12.02;3.50;;;25.00;94.00;;;;;;4960231;28;20055;-50
2022/05/17 10:27:21;;;;;;;11.18;3.22;;;25.00;93.90;;;;;;4961543;28;20062;-56
2022/05/17 10:29:54;;;;;;;8.98;3.00;;;25.00;94.00;;;;;;4965088;28;20063;-56
2022/05/17 10:32:35;;;;;;;12.38;2.97;;;24.90;93.60;;;;;;4935545;28;20059;-58
2022/05/17 10:35:10;;;;;;;8.88;3.20;;;24.80;93.60;;;;;;4959762;28;20082;-57
2022/05/17 10:37:51;;;;;;;8.25;2.83;;;24.90;92.30;;;;;;4957432;28;20265;-53
2022/05/17 10:40:27;;;;;;;9.38;3.08;;;25.00;92.50;;;;;;4945629;28;20062;-55
2022/05/17 10:42:53;;;;;;;9.90;2.58;;;25.00;92.80;;;;;;4954035;28;20549;-57
2022/05/17 10:45:22;;;;;;;11.00;3.10;;;25.00;91.50;;;;;;4960449;28;20069;-57
2022/05/17 10:48:02;;;;;;;6.60;2.28;;;25.00;91.80;;;;;;5006878;28;20559;-55
2022/05/17 10:50:57;;;;;;;9.57;2.95;;;25.10;90.20;;;;;;5005411;28;20451;-56
2022/05/17 10:53:39;;;;;;;10.15;2.53;;;25.00;89.40;;;;;;5011838;28;20053;-55
2022/05/17 10:56:20;;;;;;;8.27;2.50;;;25.10;91.40;;;;;;5010907;28;20104;-56
2022/05/17 10:59:06;;;;;;;7.32;2.15;;;25.10;88.70;;;;;;5046562;28;20143;-52
2022/05/17 11:01:57;;;;;;;7.53;2.15;;;25.30;87.60;;;;;;5083923;28;20052;-58
2022/05/17 11:04:34;;;;;;;6.53;2.97;;;25.30;88.20;;;;;;5082208;28;20166;-51
2022/05/17 11:06:59;;;;;;;6.88;1.77;;;25.40;89.10;;;;;;5082233;28;20047;-56
2022/05/17 11:09:43;;;;;;;7.18;1.90;;;25.60;87.50;;;;;;5088719;28;20044;-56
2022/05/17 11:12:12;;;;;;;6.90;2.20;;;25.80;86.40;;;;;;5083353;28;20483;-57
2022/05/17 11:14:54;;;;;;;8.20;2.10;;;25.80;88.00;;;;;;5083176;28;20058;-58
2022/05/17 11:18:01;;;;;;;6.70;2.05;;;25.90;86.10;;;;;;5079180;28;20138;-57
2022/05/17 11:20:40;;;;;;;11.35;2.60;;;25.70;87.60;;;;;;5080758;28;20058;-51
2022/05/17 11:23:11;;;;;;;8.73;3.53;;;25.60;88.60;;;;;;5083240;28;20052;-56
2022/05/17 11:25:46;;;;;;;9.27;2.80;;;25.60;90.50;;;;;;5081142;28;20094;-56
2022/05/17 11:28:33;;;;;;;6.55;3.10;;;25.70;88.40;;;;;;5078629;28;20120;-58
2022/05/17 11:31:06;;;;;;;9.45;2.65;;;25.80;89.00;;;;;;5083693;28;20653;-59
2022/05/17 11:33:39;;;;;;;10.50;3.00;;;25.90;90.30;;;;;;5082099;28;20079;-58
2022/05/17 11:36:07;;;;;;;8.07;3.25;;;26.00;89.60;;;;;;5094025;28;20064;-58
2022/05/17 11:38:33;;;;;;;7.70;3.15;;;25.80;89.50;;;;;;5103372;28;20043;-56
2022/05/17 11:41:06;;;;;;;8.75;2.85;;;25.60;90.30;;;;;;5084309;28;20242;-56
2022/05/17 11:43:41;;;;;;;10.18;3.15;;;25.30;91.10;;;;;;5083804;28;20051;-58
2022/05/17 11:46:28;;;;;;;10.20;3.42;;;25.20;91.50;;;;;;5084898;28;20053;-57
2022/05/17 11:49:18;;;;;;;10.93;3.70;;;25.00;91.50;;;;;;5084933;28;20057;-58
2022/05/17 11:51:59;;;;;;;9.05;3.15;;;25.10;91.50;;;;;;5083999;28;20070;-55
2022/05/17 11:54:49;;;;;;;9.20;3.33;;;25.00;90.80;;;;;;5101223;28;20035;-56
2022/05/17 11:57:18;;;;;;;10.70;3.38;;;24.90;90.50;;;;;;5102818;28;20055;-56
2022/05/17 11:59:54;;;;;;;9.82;2.97;;;24.90;91.40;;;;;;5084687;28;20044;-57
2022/05/17 12:02:42;;;;;;;10.88;2.70;;;25.20;91.20;;;;;;5104109;28;20061;-57
2022/05/17 12:05:13;;;;;;;9.68;3.47;;;25.20;91.80;;;;;;5084567;28;20063;-58
2022/05/17 12:07:40;;;;;;;7.57;2.97;;;25.10;90.80;;;;;;5087041;28;20112;-57
2022/05/17 12:10:15;;;;;;;8.30;2.83;;;25.10;91.20;;;;;;5107784;28;20051;-53
2022/05/17 12:13:05;;;;;;;9.25;3.13;;;25.10;90.60;;;;;;5087591;28;20051;-59
2022/05/17 12:15:55;;;;;;;7.53;2.63;;;24.90;90.00;;;;;;5104761;28;20043;-59
2022/05/17 12:18:35;;;;;;;7.93;2.47;;;25.00;92.10;;;;;;5104609;28;20450;-57
2022/05/17 12:21:04;;;;;;;9.00;2.80;;;25.20;91.10;;;;;;5104793;28;20054;-57
2022/05/17 12:24:09;;;;;;;9.57;2.47;;;25.20;90.60;;;;;;5106322;28;20054;-59
2022/05/17 12:27:08;;;;;;;10.90;3.90;;;25.00;90.40;;;;;;5098878;28;20595;-57
2022/05/17 12:32:29;;;;;;;7.00;2.70;;;25.00;90.50;;;;;;5001309;28;20058;-56
2022/05/17 12:34:57;;;;;;;9.05;2.50;;;25.10;90.90;;;;;;5000892;28;20054;-56
2022/05/17 12:37:28;;;;;;;7.45;2.60;;;25.10;90.90;;;;;;5001198;28;20065;-58
2022/05/17 12:45:29;;;;;;;6.35;2.20;;;25.20;91.40;;;;;;4999251;28;20110;-57
2022/05/17 12:48:01;;;;;;;6.70;2.17;;;25.30;91.30;;;;;;4982889;28;20065;-57
2022/05/17 12:50:48;;;;;;;6.80;2.20;;;25.40;91.80;;;;;;4999086;28;20107;-53
2022/05/17 12:53:25;;;;;;;8.25;2.50;;;25.40;91.60;;;;;;5003167;28;20046;-56
2022/05/17 12:56:06;;;;;;;8.55;2.65;;;25.60;91.80;;;;;;4985394;28;20563;-56
2022/05/17 12:58:46;;;;;;;4.70;2.45;;;25.60;91.20;;;;;;4984561;28;20136;-58
2022/05/17 13:01:24;;;;;;;7.13;2.50;;;25.50;90.60;;;;;;4985030;28;20068;-58
2022/05/17 13:03:54;;;;;;;5.70;2.03;;;25.50;91.20;;;;;;4999076;28;20192;-56
2022/05/17 13:06:20;;;;;;;8.45;3.00;;;25.50;90.80;;;;;;5014267;28;20074;-49
2022/05/17 13:08:47;;;;;;;5.43;2.20;;;25.40;90.30;;;;;;5061796;28;20086;-58
2022/05/17 13:11:24;;;;;;;7.40;3.00;;;25.30;90.60;;;;;;5061044;28;20123;-56